Decoded Metar for KTWF (TWIN FALLS in ID, USA) (IATA:TWF) | Meteo·Mobile Aviation Weather
aviador You're here:

KTWF Decoded Metar

TWIN FALLS in ID, USA
Report Time2019-01-20 10:53:00
UTC Time2019-01-20 11:25:55
Flight Rules vfr VFR
Wind180° at 12 kt
W.Decomp.*RWY 12: 8.6 kt HW 8.3 kt RCW
RWY 25: 0.8 kt HW 12 kt LCW
W.Rank180° ranks 2
Current wind is above 180° avg. (9.4)
Visibility9999 m
Phenomena:N/A
Clouds:N/A
Expected CloudBase > 1,600 ft AGL from Temp-Dew spread
CeilingNone
Temp06°C (ISA -1)
Dew Point02°C (76% RH)
AAT0.0°C
QNH1018 hPa
Density Alt4,003 ft
Elevation4,154 ft
Report Wrong Elevation
Raw Report
KTWF 201053Z AUTO 18012KT 10SM CLR 06/02 A3005 RMK AO2 SLP164
T00610017=

Extra information for KTWF:More info

Metar Taf Metar & Taf Last 4 Metars F.Rules Stats Wind Profile Meteogram Temp Stats Airport Information Weather charts Add Link Nearby VenuesMetar ALERT Operation Metar Decoded Social comments

AIRNAV info for KTWF